sensor_id;sensor_type;location;lat;lon;timestamp;temperature;humidity
24085;DHT22;12268;52.110;5.548;2022-07-23T02:38:34;17.40;99.90
24085;DHT22;12268;52.110;5.548;2022-07-23T02:41:00;17.30;99.90
24085;DHT22;12268;52.110;5.548;2022-07-23T02:43:25;17.10;99.90
24085;DHT22;12268;52.110;5.548;2022-07-23T02:45:50;17.20;99.90
24085;DHT22;12268;52.110;5.548;2022-07-23T02:48:16;17.20;99.90
24085;DHT22;12268;52.110;5.548;2022-07-23T02:50:42;17.30;99.90
24085;DHT22;12268;52.110;5.548;2022-07-23T02:53:07;17.40;99.90
24085;DHT22;12268;52.110;5.548;2022-07-23T02:55:33;17.20;99.90
24085;DHT22;12268;52.110;5.548;2022-07-23T03:03:09;17.30;99.90
24085;DHT22;12268;52.110;5.548;2022-07-23T03:05:35;17.40;99.90
24085;DHT22;12268;52.110;5.548;2022-07-23T03:08:01;17.30;99.90
24085;DHT22;12268;52.110;5.548;2022-07-23T03:10:27;17.20;99.90
24085;DHT22;12268;52.110;5.548;2022-07-23T03:12:52;17.20;99.90
24085;DHT22;12268;52.110;5.548;2022-07-23T03:15:18;17.10;99.90
24085;DHT22;12268;52.110;5.548;2022-07-23T03:17:43;17.10;99.90
24085;DHT22;12268;52.110;5.548;2022-07-23T03:20:09;17.10;99.90
24085;DHT22;12268;52.110;5.548;2022-07-23T03:22:35;17.10;99.90
24085;DHT22;12268;52.110;5.548;2022-07-23T03:25:01;17.10;99.90
24085;DHT22;12268;52.110;5.548;2022-07-23T03:27:29;17.00;99.90
24085;DHT22;12268;52.110;5.548;2022-07-23T03:29:57;17.00;99.90
24085;DHT22;12268;52.110;5.548;2022-07-23T03:32:23;17.00;99.90
24085;DHT22;12268;52.110;5.548;2022-07-23T03:34:50;17.00;99.90
24085;DHT22;12268;52.110;5.548;2022-07-23T03:37:16;17.00;99.90
24085;DHT22;12268;52.110;5.548;2022-07-23T03:39:42;17.00;99.90
24085;DHT22;12268;52.110;5.548;2022-07-23T03:42:08;17.00;99.90
24085;DHT22;12268;52.110;5.548;2022-07-23T03:44:33;16.90;99.90
24085;DHT22;12268;52.110;5.548;2022-07-23T03:46:59;16.90;99.90
24085;DHT22;12268;52.110;5.548;2022-07-23T03:49:25;16.90;99.90
24085;DHT22;12268;52.110;5.548;2022-07-23T03:51:51;16.90;99.90
24085;DHT22;12268;52.110;5.548;2022-07-23T03:54:16;16.90;99.90
24085;DHT22;12268;52.110;5.548;2022-07-23T03:56:42;16.90;99.90
24085;DHT22;12268;52.110;5.548;2022-07-23T03:59:09;16.90;99.90
24085;DHT22;12268;52.110;5.548;2022-07-23T04:01:35;16.80;99.90
24085;DHT22;12268;52.110;5.548;2022-07-23T04:04:01;16.80;99.90
24085;DHT22;12268;52.110;5.548;2022-07-23T04:06:26;16.70;99.90
24085;DHT22;12268;52.110;5.548;2022-07-23T04:08:52;16.60;99.90
24085;DHT22;12268;52.110;5.548;2022-07-23T04:11:18;16.50;99.90
24085;DHT22;12268;52.110;5.548;2022-07-23T04:13:43;16.70;99.90
24085;DHT22;12268;52.110;5.548;2022-07-23T04:16:09;16.70;99.90
24085;DHT22;12268;52.110;5.548;2022-07-23T04:18:35;16.70;99.90
24085;DHT22;12268;52.110;5.548;2022-07-23T04:21:00;16.70;99.90
24085;DHT22;12268;52.110;5.548;2022-07-23T04:23:26;16.80;99.90
24085;DHT22;12268;52.110;5.548;2022-07-23T04:25:51;16.80;99.90
24085;DHT22;12268;52.110;5.548;2022-07-23T04:28:17;16.70;99.90
24085;DHT22;12268;52.110;5.548;2022-07-23T04:30:43;16.70;99.90
24085;DHT22;12268;52.110;5.548;2022-07-23T04:33:08;16.80;99.90
24085;DHT22;12268;52.110;5.548;2022-07-23T04:35:34;16.90;99.90
24085;DHT22;12268;52.110;5.548;2022-07-23T04:38:00;16.90;99.90
24085;DHT22;12268;52.110;5.548;2022-07-23T04:40:26;17.00;99.90
24085;DHT22;12268;52.110;5.548;2022-07-23T04:42:52;17.10;99.90
24085;DHT22;12268;52.110;5.548;2022-07-23T04:45:18;17.10;99.90
24085;DHT22;12268;52.110;5.548;2022-07-23T04:47:44;17.10;99.90
24085;DHT22;12268;52.110;5.548;2022-07-23T04:50:09;17.20;99.90
24085;DHT22;12268;52.110;5.548;2022-07-23T04:52:35;17.30;99.90
24085;DHT22;12268;52.110;5.548;2022-07-23T04:55:01;17.30;99.90
24085;DHT22;12268;52.110;5.548;2022-07-23T04:57:27;17.30;99.90
24085;DHT22;12268;52.110;5.548;2022-07-23T04:59:52;17.30;99.90
24085;DHT22;12268;52.110;5.548;2022-07-23T05:02:18;17.30;99.90
24085;DHT22;12268;52.110;5.548;2022-07-23T05:04:43;17.10;99.90
24085;DHT22;12268;52.110;5.548;2022-07-23T05:07:09;17.10;99.90
24085;DHT22;12268;52.110;5.548;2022-07-23T05:09:34;17.20;99.90
24085;DHT22;12268;52.110;5.548;2022-07-23T05:12:00;17.10;99.90
24085;DHT22;12268;52.110;5.548;2022-07-23T05:14:26;17.10;99.90
24085;DHT22;12268;52.110;5.548;2022-07-23T05:16:53;17.20;99.90
24085;DHT22;12268;52.110;5.548;2022-07-23T05:19:18;17.00;99.90
24085;DHT22;12268;52.110;5.548;2022-07-23T05:21:44;17.20;99.90
24085;DHT22;12268;52.110;5.548;2022-07-23T05:24:09;17.40;99.90
24085;DHT22;12268;52.110;5.548;2022-07-23T05:26:35;17.60;99.90
24085;DHT22;12268;52.110;5.548;2022-07-23T05:29:00;17.80;99.90
24085;DHT22;12268;52.110;5.548;2022-07-23T05:31:26;17.90;99.90
24085;DHT22;12268;52.110;5.548;2022-07-23T05:33:52;18.00;99.90
24085;DHT22;12268;52.110;5.548;2022-07-23T05:36:17;18.10;99.90
24085;DHT22;12268;52.110;5.548;2022-07-23T05:38:43;18.20;99.90
24085;DHT22;12268;52.110;5.548;2022-07-23T05:41:08;18.40;99.90
24085;DHT22;12268;52.110;5.548;2022-07-23T05:43:34;18.50;99.90
24085;DHT22;12268;52.110;5.548;2022-07-23T05:45:59;18.60;99.90
24085;DHT22;12268;52.110;5.548;2022-07-23T05:48:25;18.70;99.90
24085;DHT22;12268;52.110;5.548;2022-07-23T05:50:51;18.80;99.90
24085;DHT22;12268;52.110;5.548;2022-07-23T05:53:16;19.00;99.90
24085;DHT22;12268;52.110;5.548;2022-07-23T05:55:42;19.30;99.90
24085;DHT22;12268;52.110;5.548;2022-07-23T05:58:08;19.30;99.90
24085;DHT22;12268;52.110;5.548;2022-07-23T06:00:34;19.00;99.90
24085;DHT22;12268;52.110;5.548;2022-07-23T06:03:00;18.90;99.90
24085;DHT22;12268;52.110;5.548;2022-07-23T06:05:25;18.90;99.90
24085;DHT22;12268;52.110;5.548;2022-07-23T06:07:51;19.20;99.90
24085;DHT22;12268;52.110;5.548;2022-07-23T06:10:17;19.40;99.90
24085;DHT22;12268;52.110;5.548;2022-07-23T06:12:43;19.50;99.90
24085;DHT22;12268;52.110;5.548;2022-07-23T06:15:09;19.50;99.90
24085;DHT22;12268;52.110;5.548;2022-07-23T06:17:35;19.50;99.90
24085;DHT22;12268;52.110;5.548;2022-07-23T06:20:00;19.70;99.90
24085;DHT22;12268;52.110;5.548;2022-07-23T06:22:26;19.80;99.90
24085;DHT22;12268;52.110;5.548;2022-07-23T06:24:52;19.60;99.90
24085;DHT22;12268;52.110;5.548;2022-07-23T06:27:18;19.70;99.90
24085;DHT22;12268;52.110;5.548;2022-07-23T06:29:43;19.90;99.90
24085;DHT22;12268;52.110;5.548;2022-07-23T06:32:09;19.90;99.90
24085;DHT22;12268;52.110;5.548;2022-07-23T06:34:34;20.00;99.90
24085;DHT22;12268;52.110;5.548;2022-07-23T06:37:00;20.20;99.90
24085;DHT22;12268;52.110;5.548;2022-07-23T06:39:26;20.30;99.90
24085;DHT22;12268;52.110;5.548;2022-07-23T06:41:53;20.60;99.90
24085;DHT22;12268;52.110;5.548;2022-07-23T06:44:19;20.70;99.90
24085;DHT22;12268;52.110;5.548;2022-07-23T06:46:44;20.70;99.90
24085;DHT22;12268;52.110;5.548;2022-07-23T06:49:10;20.80;99.90
24085;DHT22;12268;52.110;5.548;2022-07-23T06:51:36;20.70;99.90
24085;DHT22;12268;52.110;5.548;2022-07-23T06:54:02;20.70;99.90
24085;DHT22;12268;52.110;5.548;2022-07-23T06:56:28;20.80;99.90
24085;DHT22;12268;52.110;5.548;2022-07-23T06:58:53;20.90;99.90
24085;DHT22;12268;52.110;5.548;2022-07-23T07:01:19;21.10;99.90
24085;DHT22;12268;52.110;5.548;2022-07-23T07:03:45;21.20;99.90
24085;DHT22;12268;52.110;5.548;2022-07-23T07:06:11;21.50;99.90
24085;DHT22;12268;52.110;5.548;2022-07-23T07:08:36;21.80;99.90
24085;DHT22;12268;52.110;5.548;2022-07-23T07:11:02;22.10;99.90
24085;DHT22;12268;52.110;5.548;2022-07-23T07:13:28;22.20;99.90
24085;DHT22;12268;52.110;5.548;2022-07-23T07:15:54;22.30;99.90
24085;DHT22;12268;52.110;5.548;2022-07-23T07:18:20;22.50;99.90
24085;DHT22;12268;52.110;5.548;2022-07-23T07:20:46;22.70;99.90
24085;DHT22;12268;52.110;5.548;2022-07-23T07:23:12;23.10;99.90
24085;DHT22;12268;52.110;5.548;2022-07-23T07:25:38;23.20;99.90
24085;DHT22;12268;52.110;5.548;2022-07-23T07:28:04;23.00;99.90
24085;DHT22;12268;52.110;5.548;2022-07-23T07:30:29;23.00;99.90
24085;DHT22;12268;52.110;5.548;2022-07-23T07:32:55;23.10;99.90
24085;DHT22;12268;52.110;5.548;2022-07-23T07:35:20;23.50;99.90
24085;DHT22;12268;52.110;5.548;2022-07-23T07:37:46;23.90;99.90
24085;DHT22;12268;52.110;5.548;2022-07-23T07:40:11;24.10;99.90
24085;DHT22;12268;52.110;5.548;2022-07-23T07:42:51;24.30;99.90
24085;DHT22;12268;52.110;5.548;2022-07-23T07:45:17;24.40;99.90
24085;DHT22;12268;52.110;5.548;2022-07-23T07:47:43;24.20;99.90
24085;DHT22;12268;52.110;5.548;2022-07-23T07:50:09;24.10;99.90
24085;DHT22;12268;52.110;5.548;2022-07-23T07:52:35;24.20;99.90
24085;DHT22;12268;52.110;5.548;2022-07-23T07:55:05;24.20;99.90
24085;DHT22;12268;52.110;5.548;2022-07-23T07:57:31;24.50;99.90
24085;DHT22;12268;52.110;5.548;2022-07-23T07:59:56;25.80;99.90
24085;DHT22;12268;52.110;5.548;2022-07-23T08:02:22;26.70;99.90
24085;DHT22;12268;52.110;5.548;2022-07-23T08:04:48;26.90;99.90
24085;DHT22;12268;52.110;5.548;2022-07-23T08:07:14;28.10;99.90
24085;DHT22;12268;52.110;5.548;2022-07-23T08:09:40;29.10;99.90
24085;DHT22;12268;52.110;5.548;2022-07-23T08:12:05;30.10;99.90
24085;DHT22;12268;52.110;5.548;2022-07-23T08:14:31;31.10;99.90
24085;DHT22;12268;52.110;5.548;2022-07-23T08:16:56;31.90;99.50
24085;DHT22;12268;52.110;5.548;2022-07-23T08:19:22;32.40;97.80
24085;DHT22;12268;52.110;5.548;2022-07-23T08:21:48;32.20;94.70
24085;DHT22;12268;52.110;5.548;2022-07-23T08:24:13;32.30;95.90
24085;DHT22;12268;52.110;5.548;2022-07-23T08:26:39;32.10;94.30
24085;DHT22;12268;52.110;5.548;2022-07-23T08:29:04;31.70;95.60
24085;DHT22;12268;52.110;5.548;2022-07-23T08:31:31;31.30;94.40
24085;DHT22;12268;52.110;5.548;2022-07-23T08:33:58;30.80;95.30
24085;DHT22;12268;52.110;5.548;2022-07-23T08:36:24;31.00;95.00
24085;DHT22;12268;52.110;5.548;2022-07-23T08:38:53;32.30;94.30
24085;DHT22;12268;52.110;5.548;2022-07-23T08:41:19;32.00;90.40
24085;DHT22;12268;52.110;5.548;2022-07-23T08:43:44;31.70;91.80
24085;DHT22;12268;52.110;5.548;2022-07-23T08:46:10;31.40;91.80
24085;DHT22;12268;52.110;5.548;2022-07-23T08:48:37;31.00;91.30
24085;DHT22;12268;52.110;5.548;2022-07-23T08:51:04;31.90;91.60
24085;DHT22;12268;52.110;5.548;2022-07-23T08:53:31;31.70;90.60
24085;DHT22;12268;52.110;5.548;2022-07-23T08:56:00;30.50;90.90
24085;DHT22;12268;52.110;5.548;2022-07-23T08:58:29;29.30;91.80
24085;DHT22;12268;52.110;5.548;2022-07-23T09:03:31;30.30;93.70
24085;DHT22;12268;52.110;5.548;2022-07-23T09:05:58;31.00;90.90
24085;DHT22;12268;52.110;5.548;2022-07-23T09:08:41;32.20;92.20
24085;DHT22;12268;52.110;5.548;2022-07-23T09:11:09;33.40;87.50
24085;DHT22;12268;52.110;5.548;2022-07-23T09:13:40;34.00;82.80
24085;DHT22;12268;52.110;5.548;2022-07-23T09:16:19;35.60;81.60
24085;DHT22;12268;52.110;5.548;2022-07-23T09:18:47;35.90;75.30
24085;DHT22;12268;52.110;5.548;2022-07-23T09:21:24;36.50;74.20
24085;DHT22;12268;52.110;5.548;2022-07-23T09:23:53;37.40;76.30
24085;DHT22;12268;52.110;5.548;2022-07-23T09:26:34;39.00;71.90
24085;DHT22;12268;52.110;5.548;2022-07-23T09:29:06;40.20;66.00
24085;DHT22;12268;52.110;5.548;2022-07-23T09:31:48;39.70;62.70
24085;DHT22;12268;52.110;5.548;2022-07-23T09:36:43;41.90;58.10
24085;DHT22;12268;52.110;5.548;2022-07-23T09:39:09;42.90;55.80
24085;DHT22;12268;52.110;5.548;2022-07-23T09:41:46;43.30;52.30
24085;DHT22;12268;52.110;5.548;2022-07-23T09:44:17;42.60;51.50
24085;DHT22;12268;52.110;5.548;2022-07-23T09:46:46;42.90;51.40
24085;DHT22;12268;52.110;5.548;2022-07-23T09:49:18;43.90;51.70
24085;DHT22;12268;52.110;5.548;2022-07-23T09:51:58;44.50;51.00
24085;DHT22;12268;52.110;5.548;2022-07-23T09:56:53;45.10;47.70
24085;DHT22;12268;52.110;5.548;2022-07-23T09:59:24;45.40;48.00
24085;DHT22;12268;52.110;5.548;2022-07-23T10:01:52;44.20;43.70
24085;DHT22;12268;52.110;5.548;2022-07-23T10:04:20;43.70;45.00
24085;DHT22;12268;52.110;5.548;2022-07-23T10:06:46;44.00;46.50
24085;DHT22;12268;52.110;5.548;2022-07-23T10:09:16;43.90;44.50
24085;DHT22;12268;52.110;5.548;2022-07-23T10:11:46;42.40;47.20
24085;DHT22;12268;52.110;5.548;2022-07-23T10:14:12;43.30;48.00
24085;DHT22;12268;52.110;5.548;2022-07-23T10:16:38;44.30;45.70
24085;DHT22;12268;52.110;5.548;2022-07-23T10:19:04;45.50;45.50
24085;DHT22;12268;52.110;5.548;2022-07-23T10:21:34;46.10;43.70
24085;DHT22;12268;52.110;5.548;2022-07-23T10:29:39;46.10;42.40
24085;DHT22;12268;52.110;5.548;2022-07-23T10:35:25;46.60;41.30
24085;DHT22;12268;52.110;5.548;2022-07-23T10:37:56;46.40;42.00
24085;DHT22;12268;52.110;5.548;2022-07-23T10:40:26;46.00;40.50
24085;DHT22;12268;52.110;5.548;2022-07-23T10:42:59;44.30;42.50
24085;DHT22;12268;52.110;5.548;2022-07-23T10:45:35;42.50;45.00
24085;DHT22;12268;52.110;5.548;2022-07-23T10:50:37;38.80;47.90
24085;DHT22;12268;52.110;5.548;2022-07-23T10:57:57;41.10;46.10
24085;DHT22;12268;52.110;5.548;2022-07-23T11:00:24;41.70;45.10
24085;DHT22;12268;52.110;5.548;2022-07-23T11:02:55;41.20;44.90
24085;DHT22;12268;52.110;5.548;2022-07-23T11:05:26;40.40;46.00
24085;DHT22;12268;52.110;5.548;2022-07-23T11:10:46;42.50;45.10
24085;DHT22;12268;52.110;5.548;2022-07-23T11:24:00;44.90;42.20
24085;DHT22;12268;52.110;5.548;2022-07-23T11:32:05;45.20;41.40
24085;DHT22;12268;52.110;5.548;2022-07-23T11:34:42;46.00;40.10
24085;DHT22;12268;52.110;5.548;2022-07-23T11:37:10;45.30;39.10
24085;DHT22;12268;52.110;5.548;2022-07-23T11:39:36;44.00;41.50
24085;DHT22;12268;52.110;5.548;2022-07-23T11:42:03;41.30;44.00
24085;DHT22;12268;52.110;5.548;2022-07-23T11:44:33;41.30;45.30
24085;DHT22;12268;52.110;5.548;2022-07-23T11:47:07;43.10;43.70
24085;DHT22;12268;52.110;5.548;2022-07-23T11:49:33;43.30;42.80
24085;DHT22;12268;52.110;5.548;2022-07-23T11:52:10;44.30;43.70
24085;DHT22;12268;52.110;5.548;2022-07-23T11:54:58;45.80;41.90
24085;DHT22;12268;52.110;5.548;2022-07-23T11:57:29;46.70;40.90
24085;DHT22;12268;52.110;5.548;2022-07-23T12:00:00;46.80;40.70
24085;DHT22;12268;52.110;5.548;2022-07-23T12:02:26;47.50;41.00
24085;DHT22;12268;52.110;5.548;2022-07-23T12:04:52;46.80;38.30
24085;DHT22;12268;52.110;5.548;2022-07-23T12:07:31;47.20;39.40
24085;DHT22;12268;52.110;5.548;2022-07-23T12:09:59;48.30;37.40
24085;DHT22;12268;52.110;5.548;2022-07-23T12:12:25;47.40;38.00
24085;DHT22;12268;52.110;5.548;2022-07-23T12:14:54;48.00;38.50
24085;DHT22;12268;52.110;5.548;2022-07-23T12:17:21;47.90;38.30
24085;DHT22;12268;52.110;5.548;2022-07-23T12:19:47;46.80;38.10
24085;DHT22;12268;52.110;5.548;2022-07-23T12:22:13;44.70;39.10
24085;DHT22;12268;52.110;5.548;2022-07-23T12:24:56;44.20;38.80
24085;DHT22;12268;52.110;5.548;2022-07-23T12:27:23;45.70;38.70
24085;DHT22;12268;52.110;5.548;2022-07-23T12:29:49;45.80;37.80
24085;DHT22;12268;52.110;5.548;2022-07-23T12:32:23;47.00;38.20
24085;DHT22;12268;52.110;5.548;2022-07-23T12:35:05;47.90;37.40
24085;DHT22;12268;52.110;5.548;2022-07-23T12:37:37;47.10;36.20
24085;DHT22;12268;52.110;5.548;2022-07-23T12:40:30;46.30;38.60
24085;DHT22;12268;52.110;5.548;2022-07-23T12:43:08;46.80;38.20
24085;DHT22;12268;52.110;5.548;2022-07-23T12:45:48;48.10;36.90
24085;DHT22;12268;52.110;5.548;2022-07-23T12:50:56;46.90;36.80
24085;DHT22;12268;52.110;5.548;2022-07-23T12:55:57;43.10;41.20
24085;DHT22;12268;52.110;5.548;2022-07-23T12:58:23;43.10;42.30
24085;DHT22;12268;52.110;5.548;2022-07-23T13:01:00;42.90;38.20
24085;DHT22;12268;52.110;5.548;2022-07-23T13:03:40;42.40;41.30
24085;DHT22;12268;52.110;5.548;2022-07-23T13:06:09;41.30;40.30
24085;DHT22;12268;52.110;5.548;2022-07-23T13:08:37;41.50;43.10
24085;DHT22;12268;52.110;5.548;2022-07-23T13:11:04;42.60;42.10
24085;DHT22;12268;52.110;5.548;2022-07-23T13:13:32;43.50;41.90
24085;DHT22;12268;52.110;5.548;2022-07-23T13:15:59;43.40;40.90
24085;DHT22;12268;52.110;5.548;2022-07-23T13:18:26;43.70;39.60
24085;DHT22;12268;52.110;5.548;2022-07-23T13:20:52;43.40;41.00
24085;DHT22;12268;52.110;5.548;2022-07-23T13:23:18;44.00;41.90
24085;DHT22;12268;52.110;5.548;2022-07-23T13:25:44;44.10;39.70
24085;DHT22;12268;52.110;5.548;2022-07-23T13:28:10;44.30;39.70
24085;DHT22;12268;52.110;5.548;2022-07-23T13:30:37;44.50;40.80
24085;DHT22;12268;52.110;5.548;2022-07-23T13:33:03;44.50;40.50
24085;DHT22;12268;52.110;5.548;2022-07-23T13:35:30;44.40;38.90
24085;DHT22;12268;52.110;5.548;2022-07-23T13:37:55;44.30;39.50
24085;DHT22;12268;52.110;5.548;2022-07-23T13:40:21;43.70;39.40
24085;DHT22;12268;52.110;5.548;2022-07-23T13:42:47;42.90;39.50
24085;DHT22;12268;52.110;5.548;2022-07-23T13:45:13;42.40;40.50
24085;DHT22;12268;52.110;5.548;2022-07-23T13:47:38;42.20;39.60
24085;DHT22;12268;52.110;5.548;2022-07-23T13:50:05;39.90;41.20
24085;DHT22;12268;52.110;5.548;2022-07-23T13:52:31;38.50;43.50
24085;DHT22;12268;52.110;5.548;2022-07-23T13:55:00;37.10;46.10
24085;DHT22;12268;52.110;5.548;2022-07-23T13:57:26;37.40;46.10
24085;DHT22;12268;52.110;5.548;2022-07-23T13:59:51;37.40;45.20
24085;DHT22;12268;52.110;5.548;2022-07-23T14:02:17;37.40;46.40
24085;DHT22;12268;52.110;5.548;2022-07-23T14:04:43;37.00;47.70
24085;DHT22;12268;52.110;5.548;2022-07-23T14:07:09;37.20;46.80
24085;DHT22;12268;52.110;5.548;2022-07-23T14:09:35;37.40;47.00
24085;DHT22;12268;52.110;5.548;2022-07-23T14:12:01;35.70;46.90
24085;DHT22;12268;52.110;5.548;2022-07-23T14:14:27;35.20;49.60
24085;DHT22;12268;52.110;5.548;2022-07-23T14:16:52;35.50;49.00
24085;DHT22;12268;52.110;5.548;2022-07-23T14:19:18;35.50;48.50
24085;DHT22;12268;52.110;5.548;2022-07-23T14:21:44;34.50;48.70
24085;DHT22;12268;52.110;5.548;2022-07-23T14:24:09;34.50;50.00
24085;DHT22;12268;52.110;5.548;2022-07-23T14:26:35;34.40;50.50
24085;DHT22;12268;52.110;5.548;2022-07-23T14:29:01;34.10;54.40
24085;DHT22;12268;52.110;5.548;2022-07-23T14:31:26;33.80;51.20
24085;DHT22;12268;52.110;5.548;2022-07-23T14:33:52;33.60;51.20
24085;DHT22;12268;52.110;5.548;2022-07-23T14:36:17;33.20;52.00
24085;DHT22;12268;52.110;5.548;2022-07-23T14:38:43;33.20;54.20
24085;DHT22;12268;52.110;5.548;2022-07-23T14:41:09;33.60;54.00
24085;DHT22;12268;52.110;5.548;2022-07-23T14:43:35;34.10;52.60
24085;DHT22;12268;52.110;5.548;2022-07-23T14:46:00;34.30;51.00
24085;DHT22;12268;52.110;5.548;2022-07-23T14:48:26;34.30;50.80
24085;DHT22;12268;52.110;5.548;2022-07-23T14:50:51;34.30;51.30
24085;DHT22;12268;52.110;5.548;2022-07-23T14:53:17;33.70;49.20
24085;DHT22;12268;52.110;5.548;2022-07-23T14:55:43;33.60;52.00
24085;DHT22;12268;52.110;5.548;2022-07-23T14:58:09;33.60;51.10
24085;DHT22;12268;52.110;5.548;2022-07-23T15:00:34;33.70;52.00
24085;DHT22;12268;52.110;5.548;2022-07-23T15:03:00;33.70;50.90
24085;DHT22;12268;52.110;5.548;2022-07-23T15:05:25;33.40;50.20
24085;DHT22;12268;52.110;5.548;2022-07-23T15:07:51;32.40;54.60
24085;DHT22;12268;52.110;5.548;2022-07-23T15:10:17;32.30;54.30
24085;DHT22;12268;52.110;5.548;2022-07-23T15:12:42;32.40;55.80
24085;DHT22;12268;52.110;5.548;2022-07-23T15:15:08;32.60;54.40
24085;DHT22;12268;52.110;5.548;2022-07-23T15:17:34;32.80;53.10
24085;DHT22;12268;52.110;5.548;2022-07-23T15:19:59;32.50;55.60
24085;DHT22;12268;52.110;5.548;2022-07-23T15:22:25;32.20;55.40
24085;DHT22;12268;52.110;5.548;2022-07-23T15:24:51;32.50;55.80
24085;DHT22;12268;52.110;5.548;2022-07-23T15:27:16;32.80;55.40
24085;DHT22;12268;52.110;5.548;2022-07-23T15:29:44;32.80;57.40
24085;DHT22;12268;52.110;5.548;2022-07-23T15:32:09;33.00;56.90
24085;DHT22;12268;52.110;5.548;2022-07-23T15:34:36;33.50;56.90
24085;DHT22;12268;52.110;5.548;2022-07-23T15:37:02;33.90;55.10
24085;DHT22;12268;52.110;5.548;2022-07-23T15:39:27;33.90;54.70
24085;DHT22;12268;52.110;5.548;2022-07-23T15:41:53;34.00;54.70
24085;DHT22;12268;52.110;5.548;2022-07-23T15:44:18;34.10;54.20
24085;DHT22;12268;52.110;5.548;2022-07-23T15:46:44;34.60;53.60
24085;DHT22;12268;52.110;5.548;2022-07-23T15:49:09;34.70;51.20
24085;DHT22;12268;52.110;5.548;2022-07-23T15:51:35;34.50;53.40
24085;DHT22;12268;52.110;5.548;2022-07-23T15:54:00;34.50;53.10
24085;DHT22;12268;52.110;5.548;2022-07-23T15:56:26;34.00;53.90
24085;DHT22;12268;52.110;5.548;2022-07-23T15:58:52;34.00;52.50
24085;DHT22;12268;52.110;5.548;2022-07-23T16:01:17;34.10;55.00
24085;DHT22;12268;52.110;5.548;2022-07-23T16:03:43;34.10;52.20
24085;DHT22;12268;52.110;5.548;2022-07-23T16:06:08;34.00;53.10
24085;DHT22;12268;52.110;5.548;2022-07-23T16:08:34;33.40;52.50
24085;DHT22;12268;52.110;5.548;2022-07-23T16:11:00;33.10;54.40
24085;DHT22;12268;52.110;5.548;2022-07-23T16:13:26;33.50;57.00
24085;DHT22;12268;52.110;5.548;2022-07-23T16:15:52;33.90;54.80
24085;DHT22;12268;52.110;5.548;2022-07-23T16:18:20;34.20;53.50
24085;DHT22;12268;52.110;5.548;2022-07-23T16:20:48;34.00;52.50
24085;DHT22;12268;52.110;5.548;2022-07-23T16:23:14;33.90;53.50
24085;DHT22;12268;52.110;5.548;2022-07-23T16:25:39;33.80;54.50
24085;DHT22;12268;52.110;5.548;2022-07-23T16:28:06;34.00;54.30
24085;DHT22;12268;52.110;5.548;2022-07-23T16:30:32;34.30;55.50
24085;DHT22;12268;52.110;5.548;2022-07-23T16:32:59;34.50;56.10
24085;DHT22;12268;52.110;5.548;2022-07-23T16:35:25;34.20;56.10
24085;DHT22;12268;52.110;5.548;2022-07-23T16:37:51;34.00;55.00
24085;DHT22;12268;52.110;5.548;2022-07-23T16:40:17;34.20;55.90
24085;DHT22;12268;52.110;5.548;2022-07-23T16:42:42;34.20;55.20
24085;DHT22;12268;52.110;5.548;2022-07-23T16:45:08;34.00;56.20
24085;DHT22;12268;52.110;5.548;2022-07-23T16:47:35;33.80;55.40
24085;DHT22;12268;52.110;5.548;2022-07-23T16:50:00;33.90;57.70
24085;DHT22;12268;52.110;5.548;2022-07-23T16:52:26;34.20;56.80
24085;DHT22;12268;52.110;5.548;2022-07-23T16:54:51;34.30;56.90
24085;DHT22;12268;52.110;5.548;2022-07-23T16:57:17;34.40;56.80
24085;DHT22;12268;52.110;5.548;2022-07-23T16:59:43;34.70;56.20
24085;DHT22;12268;52.110;5.548;2022-07-23T17:02:08;34.90;55.50
24085;DHT22;12268;52.110;5.548;2022-07-23T17:04:34;34.80;54.50
24085;DHT22;12268;52.110;5.548;2022-07-23T17:06:59;34.80;55.20
24085;DHT22;12268;52.110;5.548;2022-07-23T17:09:28;34.90;54.50
24085;DHT22;12268;52.110;5.548;2022-07-23T17:11:55;35.00;54.90
24085;DHT22;12268;52.110;5.548;2022-07-23T17:14:21;35.10;55.80
24085;DHT22;12268;52.110;5.548;2022-07-23T17:16:46;35.10;55.10
24085;DHT22;12268;52.110;5.548;2022-07-23T17:19:12;35.10;55.40
24085;DHT22;12268;52.110;5.548;2022-07-23T17:21:37;35.10;54.80
24085;DHT22;12268;52.110;5.548;2022-07-23T17:24:03;34.70;52.80
24085;DHT22;12268;52.110;5.548;2022-07-23T17:26:29;34.50;53.70
24085;DHT22;12268;52.110;5.548;2022-07-23T17:28:54;34.30;53.60
24085;DHT22;12268;52.110;5.548;2022-07-23T17:31:20;34.10;54.80
24085;DHT22;12268;52.110;5.548;2022-07-23T17:33:45;33.80;54.80
24085;DHT22;12268;52.110;5.548;2022-07-23T17:36:12;33.50;57.00
24085;DHT22;12268;52.110;5.548;2022-07-23T17:38:38;32.80;58.00
24085;DHT22;12268;52.110;5.548;2022-07-23T17:41:04;32.40;59.60
24085;DHT22;12268;52.110;5.548;2022-07-23T17:43:30;32.10;60.50
24085;DHT22;12268;52.110;5.548;2022-07-23T17:45:55;31.70;61.60
24085;DHT22;12268;52.110;5.548;2022-07-23T17:48:23;31.40;59.90
24085;DHT22;12268;52.110;5.548;2022-07-23T17:50:48;30.90;60.60
24085;DHT22;12268;52.110;5.548;2022-07-23T17:53:14;30.60;66.00
24085;DHT22;12268;52.110;5.548;2022-07-23T17:55:40;29.90;68.00
24085;DHT22;12268;52.110;5.548;2022-07-23T17:58:05;29.70;69.80
24085;DHT22;12268;52.110;5.548;2022-07-23T18:00:33;29.60;73.30
24085;DHT22;12268;52.110;5.548;2022-07-23T18:02:59;29.30;74.60
24085;DHT22;12268;52.110;5.548;2022-07-23T18:05:25;29.20;76.20
24085;DHT22;12268;52.110;5.548;2022-07-23T18:07:51;29.00;79.10
24085;DHT22;12268;52.110;5.548;2022-07-23T18:10:17;29.00;82.00
24085;DHT22;12268;52.110;5.548;2022-07-23T18:12:43;28.90;79.10
24085;DHT22;12268;52.110;5.548;2022-07-23T18:15:09;28.60;82.90
24085;DHT22;12268;52.110;5.548;2022-07-23T18:17:35;28.40;86.60
24085;DHT22;12268;52.110;5.548;2022-07-23T18:20:02;28.30;90.20
24085;DHT22;12268;52.110;5.548;2022-07-23T18:22:27;28.20;84.40
24085;DHT22;12268;52.110;5.548;2022-07-23T18:24:53;28.10;82.90
24085;DHT22;12268;52.110;5.548;2022-07-23T18:27:18;27.80;83.80
24085;DHT22;12268;52.110;5.548;2022-07-23T18:29:44;27.80;88.00
24085;DHT22;12268;52.110;5.548;2022-07-23T18:32:10;27.60;91.10
24085;DHT22;12268;52.110;5.548;2022-07-23T18:34:35;27.60;94.60
24085;DHT22;12268;52.110;5.548;2022-07-23T18:37:01;27.50;95.30
24085;DHT22;12268;52.110;5.548;2022-07-23T18:39:26;27.40;96.10
24085;DHT22;12268;52.110;5.548;2022-07-23T18:41:53;27.30;96.40
24085;DHT22;12268;52.110;5.548;2022-07-23T18:44:19;27.20;96.40
24085;DHT22;12268;52.110;5.548;2022-07-23T18:46:45;27.10;96.90
24085;DHT22;12268;52.110;5.548;2022-07-23T18:49:11;27.00;98.40
24085;DHT22;12268;52.110;5.548;2022-07-23T18:51:36;27.00;97.10
24085;DHT22;12268;52.110;5.548;2022-07-23T18:54:02;26.90;99.40
24085;DHT22;12268;52.110;5.548;2022-07-23T18:56:28;26.90;99.90
24085;DHT22;12268;52.110;5.548;2022-07-23T18:58:54;26.70;99.90